createdAt,value
2022-12-03T00:01:48.290Z,0.55
2022-12-03T00:04:48.309Z,0.45
2022-12-03T00:07:48.460Z,0.5
2022-12-03T00:10:48.208Z,0.8
2022-12-03T00:13:48.288Z,0.55
2022-12-03T00:16:48.235Z,1.15
2022-12-03T00:19:48.301Z,1.05
2022-12-03T00:22:48.380Z,0.8
2022-12-03T00:25:48.226Z,0.65
2022-12-03T00:28:48.235Z,0.7
2022-12-03T00:31:48.284Z,1.2
2022-12-03T00:34:48.341Z,1.25
2022-12-03T00:37:48.283Z,0.95
2022-12-03T00:40:48.363Z,0.85
2022-12-03T00:43:48.355Z,0.45
2022-12-03T00:46:48.484Z,0.6
2022-12-03T00:49:48.336Z,0.9
2022-12-03T00:52:48.243Z,1
2022-12-03T00:55:48.272Z,0.6
2022-12-03T00:58:48.279Z,0.75
2022-12-03T01:01:48.477Z,0.8
2022-12-03T01:04:48.559Z,1
2022-12-03T01:07:48.518Z,1.2
2022-12-03T01:10:48.361Z,0.65
2022-12-03T01:13:48.427Z,0.85
2022-12-03T01:16:48.335Z,1.05
2022-12-03T01:19:49.550Z,0.6
2022-12-03T01:22:48.320Z,0.75
2022-12-03T01:25:48.283Z,0.6
2022-12-03T01:28:48.399Z,0.65
2022-12-03T01:31:48.389Z,1.4
2022-12-03T01:34:48.301Z,0.8
2022-12-03T01:37:48.346Z,0.8
2022-12-03T01:40:48.423Z,0.75
2022-12-03T01:43:48.369Z,0.6
2022-12-03T01:46:48.642Z,1
2022-12-03T01:49:48.412Z,0.55
2022-12-03T01:52:48.367Z,0.35
2022-12-03T01:55:50.039Z,0.8
2022-12-03T01:58:48.343Z,0.65
2022-12-03T02:01:48.488Z,0.6
2022-12-03T02:04:48.371Z,0.35
2022-12-03T02:07:48.509Z,0.45
2022-12-03T02:10:48.375Z,0.6
2022-12-03T02:13:48.323Z,0.6
2022-12-03T02:16:48.479Z,0.9
2022-12-03T02:19:48.494Z,0.6
2022-12-03T02:22:48.414Z,0.6
2022-12-03T02:25:48.312Z,0.65
2022-12-03T02:28:48.352Z,0.35
2022-12-03T02:31:48.518Z,0.5
2022-12-03T02:34:48.413Z,0.75
2022-12-03T02:37:48.340Z,0.65
2022-12-03T02:40:48.395Z,0.8
2022-12-03T02:43:48.344Z,0.95
2022-12-03T02:46:48.426Z,0.65
2022-12-03T02:49:48.427Z,0.95
2022-12-03T02:52:48.380Z,0.6
2022-12-03T02:55:48.404Z,0.65
2022-12-03T02:58:48.375Z,0.85
2022-12-03T03:01:48.533Z,0.85
2022-12-03T03:04:48.336Z,1.1
2022-12-03T03:07:48.499Z,0.65
2022-12-03T03:10:48.410Z,0.8
2022-12-03T03:13:48.367Z,0.7
2022-12-03T03:16:48.608Z,1.05
2022-12-03T03:19:48.420Z,0.65
2022-12-03T03:22:48.371Z,0.95
2022-12-03T03:25:48.442Z,1.2
2022-12-03T03:28:48.428Z,0.7
2022-12-03T03:31:48.502Z,0.7
2022-12-03T03:34:48.593Z,1.15
2022-12-03T03:37:48.352Z,0.8
2022-12-03T03:40:48.544Z,1
2022-12-03T03:43:48.524Z,0.8
2022-12-03T03:46:48.407Z,1.1
2022-12-03T03:49:48.415Z,1.15
2022-12-03T03:52:48.371Z,0.75
2022-12-03T03:55:48.482Z,1
2022-12-03T03:58:48.432Z,0.75
2022-12-03T04:01:48.680Z,1.1
2022-12-03T04:04:48.478Z,1
2022-12-03T04:07:48.627Z,1
2022-12-03T04:10:48.503Z,1.1
2022-12-03T04:13:48.526Z,0.9
2022-12-03T04:16:48.756Z,0.9
2022-12-03T04:19:48.478Z,0.95
2022-12-03T04:22:48.417Z,1.15
2022-12-03T04:25:48.561Z,0.7
2022-12-03T04:28:48.483Z,1
2022-12-03T04:31:48.582Z,0.7
2022-12-03T04:34:48.491Z,1.45
2022-12-03T04:37:48.657Z,0.95
2022-12-03T04:40:48.577Z,0.95
2022-12-03T04:43:48.531Z,1.15
2022-12-03T04:46:48.416Z,0.7
2022-12-03T04:49:48.519Z,0.6
2022-12-03T04:52:48.503Z,1
2022-12-03T04:55:48.612Z,0.95
2022-12-03T04:58:48.587Z,0.85
2022-12-03T05:01:48.714Z,1.2
2022-12-03T05:04:48.602Z,0.85
2022-12-03T05:07:48.694Z,0.85
2022-12-03T05:10:48.596Z,0.6
2022-12-03T05:13:48.551Z,0.75
2022-12-03T05:16:48.683Z,0.9
2022-12-03T05:19:48.496Z,0.7
2022-12-03T05:22:48.576Z,0.75
2022-12-03T05:25:48.524Z,0.95
2022-12-03T05:28:48.517Z,0.95
2022-12-03T05:31:48.631Z,1
2022-12-03T05:34:48.650Z,1.25
2022-12-03T05:37:48.572Z,1.15
2022-12-03T05:40:51.316Z,0.9
2022-12-03T05:43:48.513Z,0.7
2022-12-03T05:46:48.547Z,0.6
2022-12-03T05:49:48.487Z,0.75
2022-12-03T05:52:48.538Z,0.75
2022-12-03T05:55:48.672Z,1.2
2022-12-03T05:58:48.649Z,0.65
2022-12-03T06:01:48.668Z,1.2
2022-12-03T06:04:48.640Z,0.9
2022-12-03T06:07:48.749Z,0.85
2022-12-03T06:10:48.604Z,1.25
2022-12-03T06:13:48.601Z,1.75
2022-12-03T06:16:48.575Z,1.7
2022-12-03T06:19:48.587Z,2.05
2022-12-03T06:22:48.581Z,1.95
2022-12-03T06:25:48.600Z,1.4
2022-12-03T06:28:48.642Z,1.25
2022-12-03T06:31:52.164Z,0.75
2022-12-03T06:34:54.823Z,1
2022-12-03T06:37:49.185Z,1.5
2022-12-03T06:40:48.578Z,1.05
2022-12-03T06:43:48.751Z,1.7
2022-12-03T06:46:48.998Z,1.3
2022-12-03T06:49:48.571Z,1.6
2022-12-03T06:52:48.622Z,1.9
2022-12-03T06:55:50.803Z,1.85
2022-12-03T06:58:52.573Z,1.55
2022-12-03T07:01:48.784Z,2.05
2022-12-03T07:04:48.663Z,2.25
2022-12-03T07:07:48.757Z,1.75
2022-12-03T07:10:48.659Z,1.45
2022-12-03T07:13:48.736Z,1.1
2022-12-03T07:16:48.700Z,1.6
2022-12-03T07:19:48.726Z,1.1
2022-12-03T07:22:48.560Z,1.35
2022-12-03T07:25:48.746Z,1.45
2022-12-03T07:28:48.680Z,2.15
2022-12-03T07:31:48.903Z,1.2
2022-12-03T07:34:48.650Z,1.35
2022-12-03T07:37:48.741Z,1.4
2022-12-03T07:40:48.676Z,1.45
2022-12-03T07:43:48.683Z,0.85
2022-12-03T07:46:48.983Z,0.9
2022-12-03T07:49:48.601Z,1.3
2022-12-03T07:52:48.675Z,1.4
2022-12-03T07:55:48.597Z,1.5
2022-12-03T07:58:48.650Z,1.25
2022-12-03T08:01:48.769Z,1.3
2022-12-03T08:04:48.770Z,1.65
2022-12-03T08:07:48.792Z,1.35
2022-12-03T08:10:48.704Z,1.6
2022-12-03T08:13:48.668Z,1.5
2022-12-03T08:16:48.955Z,1.2
2022-12-03T08:19:48.679Z,1.45
2022-12-03T08:22:48.773Z,1.85
2022-12-03T08:25:48.699Z,1.55
2022-12-03T08:28:48.712Z,1.95
2022-12-03T08:31:48.827Z,0.95
2022-12-03T08:34:48.741Z,1.7
2022-12-03T08:37:48.781Z,1.55
2022-12-03T08:40:48.689Z,1.6
2022-12-03T08:43:48.683Z,1.75
2022-12-03T08:46:48.703Z,1.95
2022-12-03T08:49:48.813Z,2.3
2022-12-03T08:52:48.651Z,1.7
2022-12-03T08:55:48.792Z,1.6
2022-12-03T08:58:48.807Z,1.75
2022-12-03T09:01:48.864Z,1.35
2022-12-03T09:04:48.732Z,1.45
2022-12-03T09:07:48.884Z,1.6
2022-12-03T09:10:48.677Z,1.45
2022-12-03T09:13:48.667Z,1.35
2022-12-03T09:16:49.035Z,1.2
2022-12-03T09:19:48.742Z,1.35
2022-12-03T09:22:48.656Z,0.95
2022-12-03T09:25:48.731Z,1.6
2022-12-03T09:28:48.837Z,1.45
2022-12-03T09:31:48.893Z,1.1
2022-12-03T09:34:48.791Z,1.1
2022-12-03T09:37:48.838Z,1.25
2022-12-03T09:40:48.683Z,1.25
2022-12-03T09:44:13.883Z,0.95
2022-12-03T09:46:48.825Z,1.35
2022-12-03T09:49:48.843Z,0.75
2022-12-03T09:52:48.713Z,1.4
2022-12-03T09:55:48.780Z,2.05
2022-12-03T09:58:48.717Z,1.25
2022-12-03T10:01:49.013Z,1.5
2022-12-03T10:04:48.922Z,1.85
2022-12-03T10:07:48.923Z,1.7
2022-12-03T10:10:48.754Z,1.55
2022-12-03T10:13:48.724Z,2.3
2022-12-03T10:16:48.946Z,1.15
2022-12-03T10:19:48.723Z,1.35
2022-12-03T10:22:48.799Z,1.5
2022-12-03T10:25:48.777Z,1.45
2022-12-03T10:28:48.864Z,2.25
2022-12-03T10:31:48.983Z,1.9
2022-12-03T10:34:48.799Z,1.4
2022-12-03T10:37:48.712Z,1.15
2022-12-03T10:40:48.768Z,1.55
2022-12-03T10:43:48.733Z,1.65
2022-12-03T10:46:49.094Z,1.2
2022-12-03T10:49:48.755Z,1.75
2022-12-03T10:52:48.919Z,1.45
2022-12-03T10:55:48.742Z,1.6
2022-12-03T10:58:48.781Z,1.7
2022-12-03T11:01:49.002Z,1.5
2022-12-03T11:04:48.771Z,1.65
2022-12-03T11:07:48.880Z,1.55
2022-12-03T11:10:48.815Z,1.85
2022-12-03T11:13:48.878Z,1.35
2022-12-03T11:16:48.988Z,1.95
2022-12-03T11:19:48.858Z,1.75
2022-12-03T11:22:48.866Z,1.55
2022-12-03T11:25:48.936Z,1.3
2022-12-03T11:28:48.756Z,1.2
2022-12-03T11:31:49.125Z,1.6
2022-12-03T11:34:48.762Z,1.9
2022-12-03T11:37:48.836Z,2.1
2022-12-03T11:40:48.864Z,1.65
2022-12-03T11:43:48.816Z,2
2022-12-03T11:46:49.002Z,1.5
2022-12-03T11:49:48.828Z,2.2
2022-12-03T11:52:48.887Z,2.15
2022-12-03T11:55:48.840Z,1.85
2022-12-03T11:58:48.882Z,1.7
2022-12-03T12:01:48.833Z,1.05
2022-12-03T12:04:48.893Z,1.2
2022-12-03T12:07:49.216Z,1.65
2022-12-03T12:10:48.926Z,1.35
2022-12-03T12:13:48.804Z,2.5
2022-12-03T12:16:49.054Z,1.9
2022-12-03T12:19:54.600Z,2.1
2022-12-03T12:22:48.856Z,1.2
2022-12-03T12:25:54.439Z,1.45
2022-12-03T12:28:48.904Z,1.2
2022-12-03T12:31:54.364Z,1.5
2022-12-03T12:34:48.925Z,1.3
2022-12-03T12:37:58.434Z,1.3
2022-12-03T12:40:48.926Z,1.75
2022-12-03T12:43:48.933Z,2.15
2022-12-03T12:46:49.831Z,1.45
2022-12-03T12:49:53.115Z,1.8
2022-12-03T12:52:49.039Z,1.95
2022-12-03T12:55:48.906Z,1.65
2022-12-03T12:58:48.835Z,2
2022-12-03T13:01:49.159Z,1.9
2022-12-03T13:04:48.980Z,1.5
2022-12-03T13:07:49.209Z,1.6
2022-12-03T13:10:48.867Z,1.7
2022-12-03T13:13:48.857Z,1.65
2022-12-03T13:16:49.144Z,1.65
2022-12-03T13:20:00.768Z,1.8
2022-12-03T13:22:48.892Z,1.9
2022-12-03T13:26:09.464Z,1.8
2022-12-03T13:28:48.989Z,2.55
2022-12-03T13:31:49.061Z,2.1
2022-12-03T13:34:48.952Z,1.45
2022-12-03T13:37:48.988Z,1.1
2022-12-03T13:40:48.896Z,1.3
2022-12-03T13:43:49.005Z,1.3
2022-12-03T13:46:48.968Z,2
2022-12-03T13:49:48.893Z,1.9
2022-12-03T13:52:48.935Z,1.8
2022-12-03T13:55:49.046Z,1.3
2022-12-03T13:58:49.008Z,1.65
2022-12-03T14:01:49.191Z,2
2022-12-03T14:04:48.932Z,2.1
2022-12-03T14:07:49.072Z,1.65
2022-12-03T14:10:49.020Z,1.1
2022-12-03T14:13:49.041Z,1.4
2022-12-03T14:16:49.128Z,1.35
2022-12-03T14:19:49.005Z,1.95
2022-12-03T14:22:48.964Z,1.7
2022-12-03T14:25:49.068Z,2.15
2022-12-03T14:28:48.985Z,1.3
2022-12-03T14:31:49.126Z,1.85
2022-12-03T14:34:48.995Z,1.8
2022-12-03T14:37:48.983Z,1.45
2022-12-03T14:40:48.967Z,1.8
2022-12-03T14:43:48.949Z,1.85
2022-12-03T14:46:55.452Z,1.8
2022-12-03T14:49:49.156Z,1.6
2022-12-03T14:52:49.095Z,1.8
2022-12-03T14:55:49.096Z,1.4
2022-12-03T14:58:49.033Z,1.5
2022-12-03T15:01:49.104Z,1.65
2022-12-03T15:04:49.112Z,1.6
2022-12-03T15:07:49.254Z,1.85
2022-12-03T15:10:49.074Z,1.45
2022-12-03T15:13:49.052Z,1.35
2022-12-03T15:16:49.056Z,1.35
2022-12-03T15:19:48.968Z,2.1
2022-12-03T15:22:49.081Z,2.45
2022-12-03T15:25:48.947Z,1.35
2022-12-03T15:28:49.565Z,1.75
2022-12-03T15:31:49.213Z,1.4
2022-12-03T15:34:49.101Z,1
2022-12-03T15:37:49.013Z,1.8
2022-12-03T15:40:49.061Z,1.4
2022-12-03T15:43:49.011Z,1.9
2022-12-03T15:46:49.071Z,1.1
2022-12-03T15:49:49.141Z,2.15
2022-12-03T15:52:49.004Z,0.95
2022-12-03T15:55:49.105Z,1.45
2022-12-03T15:58:49.109Z,1.5
2022-12-03T16:01:49.202Z,1.6
2022-12-03T16:04:49.024Z,1.6
2022-12-03T16:07:49.268Z,1.85
2022-12-03T16:10:49.138Z,2.35
2022-12-03T16:13:49.141Z,1.6
2022-12-03T16:16:49.124Z,1.45
2022-12-03T16:19:49.195Z,1.55
2022-12-03T16:22:49.008Z,1.8
2022-12-03T16:25:49.092Z,1.6
2022-12-03T16:28:49.059Z,2
2022-12-03T16:31:49.152Z,1.95
2022-12-03T16:34:49.121Z,1.7
2022-12-03T16:37:49.164Z,1.55
2022-12-03T16:40:49.030Z,2.6
2022-12-03T16:43:49.085Z,1.7
2022-12-03T16:46:49.312Z,2.1
2022-12-03T16:49:49.054Z,2.2
2022-12-03T16:52:51.839Z,1.65
2022-12-03T16:55:49.127Z,1.5
2022-12-03T16:58:49.192Z,1.25
2022-12-03T17:01:49.222Z,0.95
2022-12-03T17:04:49.120Z,1.55
2022-12-03T17:07:49.162Z,1.25
2022-12-03T17:10:49.324Z,1.85
2022-12-03T17:13:49.177Z,2
2022-12-03T17:16:49.152Z,1.4
2022-12-03T17:19:49.226Z,1.45
2022-12-03T17:22:49.121Z,1.35
2022-12-03T17:25:49.062Z,1.2
2022-12-03T17:28:49.164Z,1.45
2022-12-03T17:31:49.286Z,2.25
2022-12-03T17:34:49.138Z,1.5
2022-12-03T17:37:49.162Z,2.3
2022-12-03T17:40:49.125Z,1.9
2022-12-03T17:43:49.092Z,2.05
2022-12-03T17:46:49.293Z,1.75
2022-12-03T17:49:49.246Z,1.45
2022-12-03T17:52:49.228Z,1.85
2022-12-03T17:55:49.057Z,1.8
2022-12-03T17:58:49.172Z,1.75
2022-12-03T18:01:49.272Z,2.2
2022-12-03T18:04:49.158Z,1.9
2022-12-03T18:07:49.200Z,2.05
2022-12-03T18:10:49.154Z,1.2
2022-12-03T18:13:49.213Z,1.15
2022-12-03T18:16:49.196Z,1.95
2022-12-03T18:19:49.128Z,1.15
2022-12-03T18:22:49.226Z,1.1
2022-12-03T18:25:49.215Z,1.3
2022-12-03T18:28:49.228Z,1.85
2022-12-03T18:31:49.366Z,1.45
2022-12-03T18:34:49.127Z,1.45
2022-12-03T18:37:49.202Z,1.8
2022-12-03T18:40:49.212Z,2
2022-12-03T18:43:49.255Z,1.6
2022-12-03T18:46:54.792Z,1.5
2022-12-03T18:49:49.171Z,1.5
2022-12-03T18:52:49.200Z,1.75
2022-12-03T18:55:49.274Z,1.95
2022-12-03T18:58:49.258Z,1.25
2022-12-03T19:01:49.278Z,1.25
2022-12-03T19:04:49.239Z,1.1
2022-12-03T19:07:49.364Z,1.8
2022-12-03T19:10:49.221Z,1.2
2022-12-03T19:13:49.271Z,0.9
2022-12-03T19:16:49.247Z,1.9
2022-12-03T19:19:49.185Z,2.25
2022-12-03T19:22:49.314Z,1.6
2022-12-03T19:25:49.276Z,2.2
2022-12-03T19:28:49.395Z,1.95
2022-12-03T19:31:49.384Z,2
2022-12-03T19:34:49.303Z,2.3
2022-12-03T19:37:49.300Z,1.5
2022-12-03T19:40:49.187Z,1.15
2022-12-03T19:43:49.251Z,1.1
2022-12-03T19:46:49.187Z,1.35
2022-12-03T19:49:49.252Z,1.5
2022-12-03T19:52:49.171Z,1.6
2022-12-03T19:55:49.158Z,1.1
2022-12-03T19:58:49.208Z,1.6
2022-12-03T20:01:49.693Z,1.65
2022-12-03T20:04:49.233Z,1.6
2022-12-03T20:07:49.526Z,1.85
2022-12-03T20:10:49.288Z,2.25
2022-12-03T20:13:49.251Z,1.6
2022-12-03T20:16:49.585Z,1.45
2022-12-03T20:19:49.259Z,1.35
2022-12-03T20:22:50.420Z,1.85
2022-12-03T20:25:49.284Z,1.3
2022-12-03T20:28:49.315Z,1.6
2022-12-03T20:31:49.433Z,1.95
2022-12-03T20:34:49.265Z,2.35
2022-12-03T20:37:49.283Z,1.65
2022-12-03T20:40:49.355Z,2.5
2022-12-03T20:43:49.193Z,2
2022-12-03T20:46:49.326Z,1.55
2022-12-03T20:49:49.287Z,1.6
2022-12-03T20:53:16.496Z,2.15
2022-12-03T20:55:49.199Z,1.55
2022-12-03T20:58:49.349Z,1.25
2022-12-03T21:01:52.339Z,2.3
2022-12-03T21:04:49.284Z,1.5
2022-12-03T21:07:49.392Z,1.65
2022-12-03T21:10:49.359Z,2.3
2022-12-03T21:13:49.364Z,1.2
2022-12-03T21:17:10.085Z,1.1
2022-12-03T21:19:49.355Z,1.5
2022-12-03T21:22:49.276Z,1.4
2022-12-03T21:25:49.227Z,1.6
2022-12-03T21:28:49.286Z,1.3
2022-12-03T21:31:49.413Z,1.55
2022-12-03T21:34:49.351Z,1.15
2022-12-03T21:37:49.334Z,1.15
2022-12-03T21:40:49.432Z,0.85
2022-12-03T21:43:50.382Z,1.4
2022-12-03T21:47:08.460Z,1
2022-12-03T21:49:49.361Z,2.1
2022-12-03T21:52:49.272Z,2.05
2022-12-03T21:55:49.344Z,1.35
2022-12-03T21:58:49.325Z,1.6
2022-12-03T22:01:49.672Z,1.35
2022-12-03T22:04:49.358Z,1.05
2022-12-03T22:07:49.454Z,1.25
2022-12-03T22:10:49.388Z,1.6
2022-12-03T22:13:49.395Z,1.25
2022-12-03T22:16:49.479Z,1.55
2022-12-03T22:19:49.323Z,1
2022-12-03T22:22:49.559Z,1.45
2022-12-03T22:25:49.427Z,1.65
2022-12-03T22:28:49.304Z,1.85
2022-12-03T22:31:49.325Z,1.35
2022-12-03T22:34:49.426Z,1.05
2022-12-03T22:37:49.410Z,1
2022-12-03T22:40:49.511Z,1
2022-12-03T22:43:49.508Z,1.15
2022-12-03T22:46:49.854Z,1.2
2022-12-03T22:49:49.385Z,0.85
2022-12-03T22:52:49.404Z,1.1
2022-12-03T22:55:49.453Z,1.9
2022-12-03T22:58:49.338Z,1.7
2022-12-03T23:01:49.374Z,1.2
2022-12-03T23:04:49.353Z,1.1
2022-12-03T23:07:49.559Z,1.7
2022-12-03T23:10:49.492Z,1.85
2022-12-03T23:13:49.434Z,1.55
2022-12-03T23:16:49.347Z,1
2022-12-03T23:19:49.489Z,1
2022-12-03T23:22:49.465Z,1.6
2022-12-03T23:25:49.440Z,1.15
2022-12-03T23:28:49.456Z,1.7
2022-12-03T23:31:49.646Z,1.65
2022-12-03T23:34:49.620Z,1.7
2022-12-03T23:37:49.429Z,1.65
2022-12-03T23:40:49.635Z,1.1
2022-12-03T23:43:49.447Z,0.95
2022-12-03T23:46:49.544Z,1.05
2022-12-03T23:49:49.438Z,1.7
2022-12-03T23:52:49.537Z,1.45
2022-12-03T23:55:49.474Z,1.15
2022-12-03T23:58:49.437Z,1.35
